KSVH/SVH METAR and TAF weather

Enter ICAO airport designator
Station Type Date Time Source
KSVH METAR 2021/10/20 06:55 UTC NOAA

KSVH 200655Z AUTO 00000KT 10SM CLR 08/07 A3021 RMK AO2 T00790071


Station Type Date Time Source
KSVH Decoded METAR 2021/10/20 06:55 UTC NOAA

Statesville, Statesville Municipal Airport, NC, United States (KSVH) 35-45-55N 080-57-24W
Oct 20, 2021 - 02:55 AM EDT / 2021.10.20 0655 UTC
Wind: Calm:0
Visibility: 10 mile(s):0
Sky conditions: clear
Temperature: 46.2 F (7.9 C)
Dew Point: 44.8 F (7.1 C)
Relative Humidity: 94%
Pressure (altimeter): 30.21 in. Hg (1023 hPa)
ob: KSVH 200655Z AUTO 00000KT 10SM CLR 08/07 A3021 RMK AO2 T00790071
cycle: 7

Station Type Date Time Source
KSVH TAF UTC NOAA

Error!

Example: see airport list